Time;durP1;ratioP1;P1;durP2;ratioP2;P2;SDS_P1;SDS_P2;PMS_P1;PMS_P2;Temp;Humidity;BMP_temperature;BMP_pressure;BME280_temperature;BME280_humidity;BME280_pressure;Samples;Min_cycle;Max_cycle;Signal;HPM_P1;HPM_P2
2022/03/31 00:01:15;;;;;;;30.73;10.85;;;;;;;-3.71;46.79;99269.00;4880917;29;20049;-79
2022/03/31 00:03:41;;;;;;;14.60;5.88;;;;;;;-3.90;46.65;99262.31;4882101;29;20056;-81
2022/03/31 00:06:07;;;;;;;55.10;28.25;;;;;;;-3.97;47.10;99274.78;4890847;29;20033;-82
2022/03/31 00:08:34;;;;;;;46.72;23.23;;;;;;;-4.12;46.43;99269.06;4879766;29;20041;-79
2022/03/31 00:10:59;;;;;;;24.20;11.38;;;;;;;-4.05;47.19;99282.91;4875081;29;20569;-77
2022/03/31 00:13:28;;;;;;;12.65;5.65;;;;;;;-4.07;47.19;99270.09;4881725;29;20041;-78
2022/03/31 00:15:57;;;;;;;17.25;5.57;;;;;;;-3.84;47.32;99299.03;4880767;29;20073;-78
2022/03/31 00:18:24;;;;;;;14.98;6.10;;;;;;;-3.87;46.77;99298.91;4895205;29;20085;-78
2022/03/31 00:20:50;;;;;;;18.27;6.75;;;;;;;-3.82;47.12;99311.78;4896463;29;20884;-81
2022/03/31 00:23:17;;;;;;;13.45;5.72;;;;;;;-4.02;46.78;99280.50;4876111;29;20040;-79
2022/03/31 00:25:44;;;;;;;18.58;5.95;;;;;;;-3.89;47.23;99317.47;4892225;29;20070;-80
2022/03/31 00:28:11;;;;;;;18.45;6.38;;;;;;;-4.09;47.41;99284.47;4874964;29;20041;-80
2022/03/31 00:30:38;;;;;;;15.15;5.38;;;;;;;-3.87;47.64;99311.63;4875688;29;20045;-81
2022/03/31 00:33:04;;;;;;;17.52;5.68;;;;;;;-3.91;47.38;99298.72;4857794;29;20196;-80
2022/03/31 00:35:30;;;;;;;16.67;5.32;;;;;;;-4.03;47.25;99284.69;4869471;29;20114;-80
2022/03/31 00:37:57;;;;;;;22.83;6.82;;;;;;;-3.85;47.27;99309.13;4870149;29;20401;-80
2022/03/31 00:40:24;;;;;;;35.92;7.10;;;;;;;-3.95;47.21;99292.63;4854823;29;20047;-80
2022/03/31 00:42:53;;;;;;;12.38;4.95;;;;;;;-3.86;47.38;99320.13;4853636;29;20128;-80
2022/03/31 00:45:32;;;;;;;12.25;5.38;;;;;;;-4.03;47.54;99304.16;4851273;29;20140;-80
2022/03/31 00:47:58;;;;;;;11.40;5.43;;;;;;;-4.01;47.52;99317.81;4869763;29;20037;-80
2022/03/31 00:50:26;;;;;;;14.43;5.57;;;;;;;-4.02;47.98;99322.00;4853296;29;20039;-82
2022/03/31 00:52:52;;;;;;;10.00;4.65;;;;;;;-4.09;48.29;99318.34;4869348;29;20078;-82
2022/03/31 00:55:19;;;;;;;16.63;5.38;;;;;;;-4.09;48.05;99304.78;4850920;29;20044;-79
2022/03/31 00:57:47;;;;;;;9.07;4.75;;;;;;;-3.96;48.17;99308.69;4854087;29;20080;-78
2022/03/31 01:00:17;;;;;;;22.23;5.60;;;;;;;-4.10;47.86;99290.34;4849779;29;20051;-80
2022/03/31 01:02:45;;;;;;;14.13;4.60;;;;;;;-3.87;48.18;99328.56;4835096;29;20036;-79
2022/03/31 01:05:12;;;;;;;12.10;4.38;;;;;;;-4.08;48.13;99291.25;4851781;29;20037;-80
2022/03/31 01:07:38;;;;;;;9.60;3.88;;;;;;;-3.84;48.15;99327.00;4850341;29;20080;-80
2022/03/31 01:10:06;;;;;;;172.50;65.00;;;;;;;-3.74;48.77;99330.78;4849419;29;20073;-80
2022/03/31 01:12:33;;;;;;;118.38;45.60;;;;;;;-3.69;48.64;99336.06;4852029;29;20056;-78
2022/03/31 01:15:07;;;;;;;32.63;13.00;;;;;;;-4.05;48.49;99290.53;4868614;29;20037;-78
2022/03/31 01:17:35;;;;;;;28.85;11.15;;;;;;;-3.98;48.36;99317.94;4837042;29;20045;-80
2022/03/31 01:20:03;;;;;;;22.95;9.45;;;;;;;-3.76;48.65;99336.63;4841820;29;20508;-77
2022/03/31 01:22:31;;;;;;;17.55;7.90;;;;;;;-3.80;48.46;99333.06;4852866;29;20100;-79
2022/03/31 01:24:59;;;;;;;20.70;9.60;;;;;;;-3.87;48.63;99331.09;4852604;29;20041;-81
2022/03/31 01:27:26;;;;;;;32.25;15.00;;;;;;;-3.83;48.84;99332.94;4854023;29;21008;-79
2022/03/31 01:29:53;;;;;;;22.42;11.73;;;;;;;-3.98;48.77;99334.06;4859762;29;20052;-79
2022/03/31 01:32:19;;;;;;;17.90;9.93;;;;;;;-3.96;48.97;99329.03;4862275;29;20052;-79
2022/03/31 01:34:46;;;;;;;48.53;20.70;;;;;;;-3.88;49.50;99330.22;4869422;29;21023;-78
2022/03/31 01:37:15;;;;;;;29.67;15.48;;;;;;;-3.96;49.48;99327.38;4843557;29;20085;-79
2022/03/31 01:39:41;;;;;;;28.73;13.07;;;;;;;-4.06;48.78;99320.13;4880299;29;20579;-82
2022/03/31 01:42:09;;;;;;;25.08;11.77;;;;;;;-3.98;49.37;99331.50;4890601;29;20101;-81
2022/03/31 01:44:35;;;;;;;21.50;9.43;;;;;;;-3.95;49.79;99330.75;4865714;29;20029;-77
2022/03/31 01:47:02;;;;;;;22.10;9.32;;;;;;;-3.90;50.09;99330.97;4887099;29;20045;-79
2022/03/31 01:49:28;;;;;;;15.05;6.30;;;;;;;-4.12;49.89;99302.13;4874237;29;20044;-78
2022/03/31 01:51:54;;;;;;;18.67;8.13;;;;;;;-4.24;49.90;99284.69;4875497;29;20079;-82
2022/03/31 01:54:20;;;;;;;18.48;7.78;;;;;;;-4.25;49.93;99283.78;4872490;29;20044;-80
2022/03/31 01:56:48;;;;;;;11.23;5.55;;;;;;;-3.95;50.08;99339.28;4871988;29;20097;-79
2022/03/31 01:59:15;;;;;;;8.20;4.38;;;;;;;-4.12;50.20;99315.69;4880656;29;20147;-80
2022/03/31 02:01:41;;;;;;;12.05;4.95;;;;;;;-4.17;49.37;99312.06;4878655;29;20088;-80
2022/03/31 02:04:07;;;;;;;22.00;7.18;;;;;;;-4.01;50.15;99350.88;4857007;29;20076;-79
2022/03/31 02:06:33;;;;;;;19.70;7.03;;;;;;;-4.05;50.02;99333.72;4856052;29;20079;-81
2022/03/31 02:08:59;;;;;;;16.05;6.85;;;;;;;-3.94;50.26;99343.56;4841409;29;20045;-77
2022/03/31 02:11:25;;;;;;;18.58;6.32;;;;;;;-4.01;50.00;99328.84;4858375;29;20068;-80
2022/03/31 02:13:53;;;;;;;36.47;14.93;;;;;;;-4.13;49.87;99321.56;4871123;29;20040;-79
2022/03/31 02:16:19;;;;;;;19.52;6.07;;;;;;;-3.98;49.72;99356.09;4840147;29;20509;-80
2022/03/31 02:18:45;;;;;;;35.22;6.82;;;;;;;-4.17;50.20;99323.91;4841206;29;20048;-79
2022/03/31 02:21:11;;;;;;;20.80;7.40;;;;;;;-3.94;49.87;99360.47;4857712;29;20104;-80
2022/03/31 02:23:37;;;;;;;16.25;5.50;;;;;;;-4.09;49.98;99336.16;4870220;29;20068;-81
2022/03/31 02:26:03;;;;;;;32.95;6.97;;;;;;;-4.17;50.12;99341.72;4853839;29;20041;-78
2022/03/31 02:28:29;;;;;;;21.08;7.18;;;;;;;-4.08;50.76;99359.88;4854128;29;20789;-79
2022/03/31 02:30:55;;;;;;;24.13;6.93;;;;;;;-4.08;50.74;99352.25;4869930;29;20040;-81
2022/03/31 02:33:21;;;;;;;20.40;7.18;;;;;;;-4.01;50.67;99349.16;4868613;29;20815;-81
2022/03/31 02:35:48;;;;;;;19.23;7.72;;;;;;;-4.06;50.63;99344.72;4870072;29;20036;-81
2022/03/31 02:38:14;;;;;;;21.52;9.05;;;;;;;-3.93;50.92;99354.56;4853380;29;20056;-79
2022/03/31 02:40:42;;;;;;;22.88;7.95;;;;;;;-4.03;50.43;99338.06;4852269;29;20045;-79
2022/03/31 02:43:10;;;;;;;21.00;7.60;;;;;;;-4.16;50.90;99321.44;4869148;29;20045;-81
2022/03/31 02:45:36;;;;;;;17.63;7.70;;;;;;;-4.17;50.08;99326.47;4869365;29;20106;-79
2022/03/31 02:48:02;;;;;;;18.42;8.02;;;;;;;-4.09;51.17;99353.09;4855862;29;20045;-78
2022/03/31 02:50:28;;;;;;;17.70;7.60;;;;;;;-3.99;50.98;99352.66;4841461;29;20084;-81
2022/03/31 02:55:38;;;;;;;17.65;9.05;;;;;;;-3.91;51.07;99365.69;4870363;29;21061;-79
2022/03/31 02:58:05;;;;;;;36.47;11.75;;;;;;;-3.94;51.28;99366.44;4869751;29;20495;-79
2022/03/31 03:00:33;;;;;;;17.27;8.63;;;;;;;-4.13;51.33;99329.19;4852154;29;20068;-80
2022/03/31 03:03:01;;;;;;;27.90;9.10;;;;;;;-4.11;51.25;99336.91;4869348;29;20077;-80
2022/03/31 03:05:27;;;;;;;31.95;8.48;;;;;;;-4.07;51.17;99364.16;4870909;29;20137;-81
2022/03/31 03:07:53;;;;;;;24.08;7.25;;;;;;;-4.02;51.47;99367.78;4868834;29;20045;-81
2022/03/31 03:10:19;;;;;;;16.90;5.90;;;;;;;-3.98;51.68;99366.25;4836869;29;20132;-80
2022/03/31 03:12:46;;;;;;;22.77;6.30;;;;;;;-4.09;51.26;99331.06;4854422;29;20063;-81
2022/03/31 03:15:12;;;;;;;10.80;5.38;;;;;;;-3.86;51.51;99369.28;4857283;29;20044;-78
2022/03/31 03:17:45;;;;;;;12.43;4.82;;;;;;;-3.93;51.41;99380.00;4873972;29;20132;-81
2022/03/31 03:20:14;;;;;;;11.15;4.78;;;;;;;-4.00;51.40;99371.25;4868858;29;20031;-80
2022/03/31 03:22:48;;;;;;;12.60;4.40;;;;;;;-3.87;51.88;99385.34;4892986;29;20056;-77
2022/03/31 03:25:17;;;;;;;11.48;5.40;;;;;;;-3.77;50.81;99384.06;4880065;29;20041;-79
2022/03/31 03:27:48;;;;;;;18.20;7.03;;;;;;;-3.99;51.37;99342.47;4872142;29;20045;-78
2022/03/31 03:30:18;;;;;;;21.10;8.98;;;;;;;-3.70;51.36;99375.91;4850923;29;20145;-79
2022/03/31 03:32:45;;;;;;;38.38;21.08;;;;;;;-3.75;51.19;99369.75;4852742;29;20065;-82
2022/03/31 03:35:13;;;;;;;38.97;17.63;;;;;;;-3.58;51.71;99392.47;4870638;29;20513;-79
2022/03/31 03:37:40;;;;;;;113.05;47.55;;;;;;;-3.55;51.66;99387.50;4869369;29;20040;-77
2022/03/31 03:40:08;;;;;;;54.70;24.83;;;;;;;-3.36;51.54;99391.69;4851745;29;20934;-79
2022/03/31 03:42:35;;;;;;;61.47;28.75;;;;;;;-3.53;51.38;99346.03;4852137;29;20038;-77
2022/03/31 03:45:02;;;;;;;36.75;18.10;;;;;;;-3.20;51.17;99376.19;4839269;29;20053;-79
2022/03/31 03:47:30;;;;;;;31.60;14.48;;;;;;;-2.97;51.12;99390.63;4861243;29;20139;-79
2022/03/31 03:49:56;;;;;;;21.35;10.02;;;;;;;-2.80;50.98;99387.09;4881741;29;20403;-81
2022/03/31 03:52:23;;;;;;;23.38;14.02;;;;;;;-2.74;51.46;99368.59;4863333;29;20037;-82
2022/03/31 03:54:50;;;;;;;22.20;12.77;;;;;;;-2.81;50.47;99328.44;4858028;29;20033;-79
2022/03/31 03:57:17;;;;;;;13.65;8.80;;;;;;;-2.41;50.87;99393.59;4874138;29;20049;-78
2022/03/31 03:59:43;;;;;;;15.85;9.65;;;;;;;-2.50;50.60;99350.81;4852760;29;20409;-81
2022/03/31 04:02:09;;;;;;;22.58;8.65;;;;;;;-2.12;50.31;99392.13;4856091;29;20038;-80
2022/03/31 04:04:35;;;;;;;19.00;8.10;;;;;;;-1.98;50.62;99394.28;4843439;29;20132;-82
2022/03/31 04:07:01;;;;;;;23.77;7.35;;;;;;;-2.19;49.62;99343.38;4873822;29;20077;-79
2022/03/31 04:09:33;;;;;;;14.95;6.40;;;;;;;-1.92;49.86;99350.25;4840286;29;20037;-83
2022/03/31 04:11:59;;;;;;;15.90;7.05;;;;;;;-1.57;50.36;99387.16;4853319;29;20052;-78
2022/03/31 04:14:25;;;;;;;24.60;8.73;;;;;;;-1.42;49.48;99396.13;4857022;29;20556;-83
2022/03/31 04:16:51;;;;;;;21.52;9.80;;;;;;;-1.41;49.08;99382.56;4870564;29;20140;-79
2022/03/31 04:19:19;;;;;;;16.10;7.63;;;;;;;-1.44;49.13;99370.56;4870388;29;20061;-78
2022/03/31 04:21:45;;;;;;;14.23;7.18;;;;;;;-1.37;49.15;99364.88;4856598;29;20045;-78
2022/03/31 04:24:11;;;;;;;17.55;7.93;;;;;;;-0.95;48.86;99389.13;4853945;29;20398;-81
2022/03/31 04:26:37;;;;;;;16.65;7.43;;;;;;;-0.62;48.66;99414.00;4852247;29;20404;-75
2022/03/31 04:29:08;;;;;;;12.85;6.97;;;;;;;-0.57;48.65;99380.03;4841960;29;20033;-79
2022/03/31 04:31:40;;;;;;;34.30;12.40;;;;;;;-0.19;48.08;99413.50;4848814;29;20049;-80
2022/03/31 04:34:08;;;;;;;32.70;12.02;;;;;;;-0.18;47.79;99366.66;4870484;29;20215;-79
2022/03/31 04:36:34;;;;;;;34.58;13.30;;;;;;;0.22;47.79;99383.06;4867265;29;20088;-80
2022/03/31 04:39:00;;;;;;;39.63;14.38;;;;;;;0.64;47.33;99396.06;4871095;29;20044;-78
2022/03/31 04:41:27;;;;;;;36.75;11.90;;;;;;;0.86;47.53;99379.53;4841109;29;20045;-78
2022/03/31 04:43:53;;;;;;;30.08;10.38;;;;;;;1.18;47.09;99375.13;4855749;29;20409;-80
2022/03/31 04:46:20;;;;;;;65.32;29.45;;;;;;;1.69;46.35;99406.09;4868190;29;20072;-79
2022/03/31 04:48:48;;;;;;;37.42;17.70;;;;;;;1.92;45.81;99404.03;4868327;29;20045;-79
2022/03/31 04:51:14;;;;;;;21.58;11.40;;;;;;;2.14;45.88;99377.88;4850642;29;20156;-80
2022/03/31 04:53:40;;;;;;;26.08;12.27;;;;;;;2.58;45.45;99389.78;4852456;29;20057;-79
2022/03/31 04:56:06;;;;;;;25.95;13.48;;;;;;;3.00;45.37;99397.31;4843655;29;20104;-79
2022/03/31 04:58:32;;;;;;;24.63;12.15;;;;;;;3.25;44.47;99383.97;4885207;29;20055;-80
2022/03/31 05:01:01;;;;;;;25.80;10.77;;;;;;;3.74;44.19;99391.47;4886611;29;20044;-77
2022/03/31 05:03:27;;;;;;;20.95;9.70;;;;;;;4.04;43.45;99366.94;4865806;29;20069;-79
2022/03/31 05:05:53;;;;;;;16.42;8.25;;;;;;;4.90;42.63;99404.66;4840436;29;20140;-78
2022/03/31 05:08:22;;;;;;;16.45;7.07;;;;;;;5.58;42.21;99380.13;4858749;29;20144;-78
2022/03/31 05:10:48;;;;;;;14.15;6.68;;;;;;;6.43;41.53;99386.47;4872948;29;20060;-80
2022/03/31 05:13:14;;;;;;;18.52;7.82;;;;;;;7.21;40.06;99384.72;4855734;29;20761;-80
2022/03/31 05:15:40;;;;;;;14.40;8.15;;;;;;;7.59;39.36;99360.44;4855398;29;20101;-78
2022/03/31 05:18:06;;;;;;;22.77;11.18;;;;;;;7.80;38.06;99400.06;4855722;29;20139;-77
2022/03/31 05:20:32;;;;;;;20.98;9.88;;;;;;;7.57;38.35;99392.41;4872688;29;20061;-77
2022/03/31 05:22:58;;;;;;;17.23;8.18;;;;;;;7.53;37.92;99396.72;4857429;29;20108;-79
2022/03/31 05:25:25;;;;;;;14.85;7.13;;;;;;;7.91;38.18;99410.41;4865176;29;20112;-78
2022/03/31 05:27:51;;;;;;;14.90;7.20;;;;;;;8.22;37.40;99399.91;4866468;29;20109;-79
2022/03/31 05:30:22;;;;;;;19.00;8.02;;;;;;;8.08;37.30;99400.81;4857050;29;20421;-78
2022/03/31 05:32:49;;;;;;;19.25;8.60;;;;;;;7.46;37.16;99414.00;4855779;29;20485;-77
2022/03/31 05:35:15;;;;;;;13.80;5.82;;;;;;;7.24;37.80;99408.00;4873066;29;20044;-82
2022/03/31 05:37:41;;;;;;;33.78;14.65;;;;;;;7.28;38.17;99393.31;4875228;29;20053;-78
2022/03/31 05:40:09;;;;;;;24.92;13.50;;;;;;;8.25;37.51;99405.06;4873939;29;20080;-79
2022/03/31 05:42:36;;;;;;;35.22;17.27;;;;;;;9.14;36.21;99402.72;4874836;29;20422;-78
2022/03/31 05:45:07;;;;;;;18.45;9.73;;;;;;;10.14;35.11;99403.31;4856243;29;20140;-77
2022/03/31 05:47:33;;;;;;;29.25;12.88;;;;;;;10.67;34.43;99332.34;4876874;29;20052;-80
2022/03/31 05:49:59;;;;;;;29.50;13.88;;;;;;;11.24;33.59;99382.53;4856874;29;20045;-79
2022/03/31 05:52:25;;;;;;;19.45;8.02;;;;;;;11.30;31.99;99398.91;4873696;29;20406;-78
2022/03/31 05:54:54;;;;;;;22.83;9.98;;;;;;;11.42;32.85;99412.59;4874435;29;20064;-79
2022/03/31 05:57:20;;;;;;;12.85;5.90;;;;;;;11.97;31.97;99396.75;4862732;29;20045;-76
2022/03/31 05:59:48;;;;;;;9.40;4.38;;;;;;;11.98;32.03;99362.84;4858611;29;20054;-79
2022/03/31 06:02:17;;;;;;;14.73;5.18;;;;;;;11.93;31.41;99419.44;4873309;29;20045;-78
2022/03/31 06:04:43;;;;;;;12.63;5.55;;;;;;;11.94;31.50;99418.53;4873875;29;20072;-77
2022/03/31 06:07:09;;;;;;;11.68;6.05;;;;;;;12.35;31.04;99421.19;4873243;29;20112;-78
2022/03/31 06:09:35;;;;;;;15.02;7.00;;;;;;;12.45;30.52;99416.63;4860917;29;20083;-82
2022/03/31 06:12:07;;;;;;;13.50;7.00;;;;;;;12.58;30.63;99414.59;4873956;29;20422;-79
2022/03/31 06:14:34;;;;;;;17.50;7.60;;;;;;;13.86;29.98;99413.94;4852966;29;20497;-81
2022/03/31 06:17:00;;;;;;;22.30;9.93;;;;;;;14.52;29.32;99402.41;4866553;29;20139;-80
2022/03/31 06:19:26;;;;;;;15.02;8.55;;;;;;;15.08;28.56;99415.50;4857649;29;20159;-81
2022/03/31 06:21:52;;;;;;;13.57;6.05;;;;;;;15.75;28.09;99428.00;4872011;29;20060;-82
2022/03/31 06:24:18;;;;;;;13.90;6.72;;;;;;;16.61;27.60;99404.66;4854692;29;20051;-78
2022/03/31 06:26:44;;;;;;;9.10;4.60;;;;;;;17.15;26.17;99428.75;4872761;29;20401;-81
2022/03/31 06:29:10;;;;;;;6.50;3.80;;;;;;;17.09;25.08;99431.69;4839612;29;20041;-81
2022/03/31 06:31:38;;;;;;;5.70;3.20;;;;;;;17.37;25.99;99434.91;4869666;29;20867;-81
2022/03/31 06:34:04;;;;;;;6.70;2.90;;;;;;;16.73;26.06;99400.69;4878921;29;20097;-78
2022/03/31 06:36:30;;;;;;;3.70;2.40;;;;;;;16.18;25.76;99433.47;4891393;29;20043;-82
2022/03/31 06:38:57;;;;;;;7.45;4.22;;;;;;;15.31;26.53;99439.16;4884064;29;20076;-82
2022/03/31 06:41:23;;;;;;;5.05;3.13;;;;;;;15.27;26.36;99455.00;4873077;29;20088;-80
2022/03/31 06:44:16;;;;;;;4.55;2.72;;;;;;;15.56;26.94;99445.31;4871635;29;20041;-80
2022/03/31 06:46:48;;;;;;;7.43;3.10;;;;;;;15.13;27.08;99416.16;4830654;29;20056;-81
2022/03/31 06:49:14;;;;;;;11.27;4.30;;;;;;;15.19;26.59;99436.94;4871418;29;20657;-79
2022/03/31 06:51:43;;;;;;;12.65;5.57;;;;;;;14.46;27.00;99437.44;4850218;29;20041;-79
2022/03/31 06:54:09;;;;;;;10.32;5.05;;;;;;;13.64;27.42;99420.66;4872014;29;20089;-78
2022/03/31 06:56:36;;;;;;;6.07;3.20;;;;;;;13.48;27.74;99430.66;4854407;29;20041;-79
2022/03/31 06:59:02;;;;;;;5.80;2.90;;;;;;;13.23;27.56;99434.75;4855357;29;20072;-79
2022/03/31 07:01:34;;;;;;;3.42;2.08;;;;;;;12.65;28.45;99427.47;4854402;29;20056;-79
2022/03/31 07:04:01;;;;;;;4.20;2.17;;;;;;;12.19;28.85;99437.16;4871532;29;20061;-78
2022/03/31 07:06:27;;;;;;;3.55;2.05;;;;;;;11.38;28.81;99434.38;4843476;29;21019;-77
2022/03/31 07:09:03;;;;;;;4.13;2.33;;;;;;;10.62;29.81;99425.22;4872732;29;20052;-81
2022/03/31 07:11:39;;;;;;;3.03;2.13;;;;;;;10.07;30.71;99373.06;4853798;29;20045;-80
2022/03/31 07:14:11;;;;;;;3.00;2.20;;;;;;;10.12;31.12;99373.00;4870920;29;20055;-79
2022/03/31 07:16:37;;;;;;;3.72;2.13;;;;;;;10.41;30.58;99429.84;4871345;29;20045;-78
2022/03/31 07:19:04;;;;;;;5.63;2.17;;;;;;;10.27;31.36;99427.41;4855307;29;20166;-81
2022/03/31 07:21:30;;;;;;;4.18;2.15;;;;;;;10.32;31.03;99420.41;4867993;29;20044;-78
2022/03/31 07:23:57;;;;;;;6.93;2.50;;;;;;;10.37;31.72;99435.94;4858526;29;20060;-77
2022/03/31 07:26:26;;;;;;;3.63;2.08;;;;;;;10.35;31.79;99391.75;4875467;29;20037;-77
2022/03/31 07:29:17;;;;;;;6.85;3.55;;;;;;;10.35;31.16;99403.88;4872375;29;20049;-79
2022/03/31 07:31:55;;;;;;;6.18;2.60;;;;;;;10.89;30.75;99442.13;4842228;29;20056;-81
2022/03/31 07:35:44;;;;;;;7.18;2.97;;;;;;;10.51;31.37;99392.41;4802573;29;20038;-78
2022/03/31 07:38:16;;;;;;;6.00;2.50;;;;;;;10.54;30.65;99361.13;4790014;29;20128;-79
2022/03/31 07:40:50;;;;;;;7.30;2.47;;;;;;;10.07;30.35;99393.84;4804229;29;20038;-79
2022/03/31 07:43:16;;;;;;;3.75;2.20;;;;;;;9.95;31.35;99458.13;4804298;29;20475;-79
2022/03/31 07:45:45;;;;;;;2.83;2.33;;;;;;;9.42;31.78;99438.78;4812294;29;20058;-78
2022/03/31 07:48:15;;;;;;;4.03;2.50;;;;;;;9.41;32.40;99456.09;4837274;29;20547;-79
2022/03/31 07:50:42;;;;;;;5.28;2.30;;;;;;;9.09;33.05;99407.06;4851707;29;20148;-81
2022/03/31 07:53:10;;;;;;;4.68;2.25;;;;;;;9.23;32.55;99425.13;4852699;29;20048;-80
2022/03/31 07:59:39;;;;;;;;;;;;;;;9.36;33.75;99451.84;4876590;29;20598;-80
2022/03/31 08:02:31;;;;;;;5.05;3.03;;;;;;;8.63;33.25;99295.03;4874664;29;19920;-81
2022/03/31 08:05:37;;;;;;;6.90;2.90;;;;;;;9.16;32.29;99447.66;4838598;29;20040;-80
2022/03/31 08:08:10;;;;;;;4.72;2.55;;;;;;;8.03;33.47;99355.94;4843167;29;20048;-76
2022/03/31 08:11:00;;;;;;;5.43;2.80;;;;;;;7.81;34.62;99287.84;4857010;29;20105;-79
2022/03/31 08:13:58;;;;;;;5.07;2.90;;;;;;;8.64;33.96;99435.94;4875521;29;20048;-80
2022/03/31 08:16:27;;;;;;;5.18;3.03;;;;;;;8.55;34.72;99410.94;4853247;29;20572;-80
2022/03/31 08:18:56;;;;;;;5.18;2.65;;;;;;;8.62;34.50;99443.75;4872346;29;20079;-77
2022/03/31 08:21:21;;;;;;;5.18;2.78;;;;;;;8.48;35.02;99443.84;4854008;29;20048;-78
2022/03/31 08:23:51;;;;;;;4.28;2.88;;;;;;;7.73;34.01;99404.44;4841735;29;20608;-78
2022/03/31 08:27:07;;;;;;;6.32;3.10;;;;;;;7.71;36.22;99452.78;4853199;29;20072;-81
2022/03/31 08:29:33;;;;;;;6.53;3.00;;;;;;;7.52;35.47;99460.59;4822261;29;20043;-77
2022/03/31 08:32:01;;;;;;;5.63;3.03;;;;;;;7.38;36.85;99449.41;4857435;29;20048;-80
2022/03/31 08:34:27;;;;;;;8.23;3.47;;;;;;;7.36;36.91;99448.56;4869438;29;20041;-79
2022/03/31 08:36:53;;;;;;;5.38;3.17;;;;;;;7.14;37.20;99440.81;4870604;29;20413;-77
2022/03/31 08:39:22;;;;;;;6.22;3.00;;;;;;;7.01;36.75;99398.56;4851123;29;20033;-78
2022/03/31 08:41:49;;;;;;;8.40;3.50;;;;;;;7.33;37.16;99445.97;4868535;29;20135;-80
2022/03/31 08:44:18;;;;;;;7.75;3.30;;;;;;;7.48;37.45;99440.75;4865840;29;20139;-79
2022/03/31 08:46:45;;;;;;;5.75;3.08;;;;;;;7.76;37.40;99439.81;4870408;29;20164;-77
2022/03/31 08:49:22;;;;;;;7.07;3.10;;;;;;;7.53;36.42;99355.28;4842545;29;20044;-78
2022/03/31 08:51:51;;;;;;;4.40;2.45;;;;;;;8.29;36.36;99425.78;4854736;29;20864;-77
2022/03/31 08:54:17;;;;;;;6.95;3.10;;;;;;;8.56;36.12;99430.81;4859992;29;20065;-80
2022/03/31 08:56:43;;;;;;;4.25;2.65;;;;;;;8.47;36.07;99410.13;4871940;29;20516;-78
2022/03/31 08:59:10;;;;;;;4.43;2.92;;;;;;;8.18;35.86;99427.53;4853468;29;20048;-80
2022/03/31 09:01:39;;;;;;;5.30;2.70;;;;;;;7.88;36.55;99429.41;4856257;29;20049;-79
2022/03/31 09:04:22;;;;;;;5.97;2.50;;;;;;;7.63;36.58;99423.44;4871147;29;20041;-77
2022/03/31 09:07:01;;;;;;;4.65;2.70;;;;;;;7.33;37.07;99409.72;4856177;29;20041;-78
2022/03/31 09:09:28;;;;;;;3.45;2.25;;;;;;;7.45;37.11;99421.78;4872182;29;20124;-79
2022/03/31 09:11:54;;;;;;;5.20;2.55;;;;;;;7.58;37.36;99407.94;4862233;29;20053;-81
2022/03/31 09:14:32;;;;;;;5.32;2.58;;;;;;;7.65;37.02;99409.63;4859002;29;20041;-78
2022/03/31 09:17:12;;;;;;;4.63;2.60;;;;;;;7.50;36.56;99412.28;4876879;29;20052;-76
2022/03/31 09:19:41;;;;;;;5.60;2.90;;;;;;;7.81;36.90;99404.41;4859402;29;20064;-80
2022/03/31 09:22:08;;;;;;;5.03;2.08;;;;;;;8.43;36.19;99411.84;4857173;29;20053;-78
2022/03/31 09:24:35;;;;;;;4.13;2.38;;;;;;;8.36;34.89;99415.38;4870423;29;20462;-80
2022/03/31 09:27:04;;;;;;;5.43;2.58;;;;;;;7.80;35.20;99390.59;4853591;29;20044;-81
2022/03/31 09:29:33;;;;;;;6.18;3.80;;;;;;;7.57;35.74;99389.81;4851489;29;20049;-80
2022/03/31 09:32:11;;;;;;;8.77;3.00;;;;;;;7.77;35.59;99400.97;4853565;29;20390;-82
2022/03/31 09:34:41;;;;;;;3.70;2.75;;;;;;;7.62;35.33;99396.69;4857246;29;20506;-78
2022/03/31 09:37:08;;;;;;;3.90;2.78;;;;;;;7.73;35.33;99399.25;4868006;29;20041;-79
2022/03/31 09:39:35;;;;;;;4.85;2.42;;;;;;;7.67;35.40;99392.38;4871500;29;20044;-81
2022/03/31 09:42:01;;;;;;;4.43;2.50;;;;;;;7.83;35.80;99387.97;4865149;29;20048;-81
2022/03/31 09:44:31;;;;;;;3.88;2.60;;;;;;;7.87;35.36;99351.69;4886802;29;20037;-78
2022/03/31 09:47:01;;;;;;;5.68;2.47;;;;;;;8.34;35.34;99392.03;4842071;29;20130;-80
2022/03/31 09:49:30;;;;;;;4.70;2.35;;;;;;;8.43;34.79;99379.03;4869567;29;20052;-79
2022/03/31 09:52:02;;;;;;;3.75;2.83;;;;;;;8.20;34.63;99381.75;4885798;29;20041;-80
2022/03/31 09:54:31;;;;;;;6.25;2.40;;;;;;;8.26;35.13;99397.28;4861182;29;20169;-81
2022/03/31 09:56:59;;;;;;;4.05;2.20;;;;;;;7.81;35.01;99369.00;4856887;29;20120;-82
2022/03/31 09:59:42;;;;;;;8.07;3.40;;;;;;;7.81;35.19;99392.31;4828738;29;20417;-79
2022/03/31 10:02:09;;;;;;;3.50;2.33;;;;;;;7.11;35.48;99399.41;4871764;29;20049;-81
2022/03/31 10:04:35;;;;;;;4.93;2.33;;;;;;;6.73;35.65;99388.22;4857150;29;20139;-77
2022/03/31 10:07:04;;;;;;;5.80;2.50;;;;;;;6.36;36.15;99361.47;4844054;29;20109;-78
2022/03/31 10:09:35;;;;;;;5.57;2.35;;;;;;;6.09;36.91;99366.59;4875974;29;20110;-80
2022/03/31 10:12:32;;;;;;;9.55;2.38;;;;;;;5.79;36.92;99391.41;4856895;29;20049;-79
2022/03/31 10:15:26;;;;;;;4.75;2.20;;;;;;;5.49;37.78;99315.59;4855903;29;20132;-79
2022/03/31 10:17:52;;;;;;;6.03;2.20;;;;;;;5.75;37.31;99386.25;4854961;29;20554;-80
2022/03/31 10:20:21;;;;;;;4.05;2.20;;;;;;;5.34;38.15;99382.59;4842566;29;20385;-81
2022/03/31 10:25:47;;;;;;;5.75;2.50;;;;;;;5.37;39.74;99398.97;4870853;29;20069;-79
2022/03/31 10:28:18;;;;;;;4.10;2.53;;;;;;;5.30;40.08;99380.88;4871234;29;20041;-79
2022/03/31 10:30:57;;;;;;;3.53;2.58;;;;;;;5.18;40.86;99366.19;4879732;29;20056;-80
2022/03/31 10:33:29;;;;;;;3.60;2.30;;;;;;;5.26;41.61;99308.59;4863296;29;20032;-80
2022/03/31 10:36:14;;;;;;;5.22;2.38;;;;;;;5.87;40.83;99378.53;4857443;29;20041;-78
2022/03/31 10:39:02;;;;;;;3.40;2.20;;;;;;;5.62;40.19;99378.44;4874952;29;20032;-81
2022/03/31 10:41:38;;;;;;;5.10;2.30;;;;;;;5.60;41.42;99359.50;4856842;29;20053;-77
2022/03/31 10:44:14;;;;;;;4.35;2.75;;;;;;;5.73;41.74;99376.75;4856296;29;20120;-78
2022/03/31 10:46:42;;;;;;;4.90;2.55;;;;;;;5.78;41.21;99373.34;4860283;29;20073;-77
2022/03/31 10:49:19;;;;;;;4.72;2.35;;;;;;;5.81;40.75;99375.94;4863398;29;20052;-80
2022/03/31 10:51:48;;;;;;;3.88;2.40;;;;;;;5.21;40.44;99336.09;4862611;29;20065;-78
2022/03/31 10:54:30;;;;;;;4.72;2.47;;;;;;;5.45;41.99;99380.94;4859387;29;20041;-77
2022/03/31 10:57:08;;;;;;;5.00;2.92;;;;;;;5.65;42.40;99373.28;4859057;29;20037;-81
2022/03/31 10:59:35;;;;;;;4.63;2.50;;;;;;;5.63;41.69;99350.91;4854029;29;20053;-79
2022/03/31 11:02:13;;;;;;;3.13;2.35;;;;;;;5.75;42.43;99371.59;4858321;29;20040;-77
2022/03/31 11:04:47;;;;;;;3.78;2.30;;;;;;;5.49;40.99;99367.22;4855990;29;20502;-79
2022/03/31 11:07:18;;;;;;;4.95;2.70;;;;;;;5.33;42.41;99371.41;4858766;29;20525;-77
2022/03/31 11:09:45;;;;;;;4.75;2.40;;;;;;;5.33;42.18;99349.91;4851831;29;20382;-80
2022/03/31 11:12:27;;;;;;;5.38;2.42;;;;;;;5.09;41.59;99356.63;4843231;29;20744;-80
2022/03/31 11:15:05;;;;;;;6.38;2.60;;;;;;;5.06;43.35;99347.16;4871744;29;20049;-77
2022/03/31 11:17:32;;;;;;;7.28;3.10;;;;;;;5.41;43.08;99355.97;4872127;29;20065;-78
2022/03/31 11:20:00;;;;;;;5.03;2.63;;;;;;;5.58;43.28;99345.72;4872982;29;20049;-78
2022/03/31 11:22:27;;;;;;;5.53;2.58;;;;;;;5.45;42.81;99349.97;4862362;29;20442;-76
2022/03/31 11:25:16;;;;;;;4.20;2.70;;;;;;;5.48;43.37;99359.44;4878872;29;20049;-79
2022/03/31 11:27:46;;;;;;;6.72;3.20;;;;;;;5.34;43.73;99337.03;4841359;29;20049;-78
2022/03/31 11:30:18;;;;;;;6.38;3.10;;;;;;;5.27;43.76;99348.16;4863170;29;20124;-78
2022/03/31 11:32:45;;;;;;;4.65;2.97;;;;;;;5.25;43.98;99367.91;4868589;29;20068;-75
2022/03/31 11:35:15;;;;;;;5.95;3.17;;;;;;;4.96;43.74;99361.72;4883656;29;20049;-77
2022/03/31 11:37:50;;;;;;;8.65;3.78;;;;;;;4.57;45.44;99327.06;4871803;29;20310;-76
2022/03/31 11:40:35;;;;;;;6.75;3.40;;;;;;;4.97;46.45;99355.72;4881349;29;20045;-75
2022/03/31 11:43:05;;;;;;;5.63;3.55;;;;;;;4.75;46.44;99331.47;4869119;29;20112;-76
2022/03/31 11:45:48;;;;;;;5.25;3.63;;;;;;;4.94;47.01;99329.91;4889698;29;20065;-78
2022/03/31 11:48:19;;;;;;;6.65;3.85;;;;;;;4.72;47.46;99318.59;4860205;29;20060;-79
2022/03/31 11:50:59;;;;;;;7.70;4.50;;;;;;;4.49;48.63;99326.13;4875354;29;20021;-79
2022/03/31 11:53:30;;;;;;;6.07;4.28;;;;;;;4.71;49.29;99346.91;4877689;29;20087;-77